Terminal Aerodrome Forecast
Issued by NWS Portland, OR

Home | Current Version | Previous Version | Text Only | Print | Product List | Glossary On
Versions: 1 2 3 4 5 6 7 8 9 10 11 12 13 14 15 16 17 18 19 20 21 22 23 24
000
FTUS46 KPQR 190541
TAFSLE
TAF
KSLE 190541Z 1906/2006 VRB03KT P6SM SCT040 BKN060
      TEMPO 1906/1910 BKN040
     FM191000 VRB03KT P6SM BKN030 OVC050
     FM191900 36006KT P6SM SCT070=

USA.gov is the U.S. government's official web portal to all federal, state and local government web resources and services.